Time;durP1;ratioP1;P1;durP2;ratioP2;P2;SDS_P1;SDS_P2;PMS_P1;PMS_P2;Temp;Humidity;BMP_temperature;BMP_pressure;BME280_temperature;BME280_humidity;BME280_pressure;Samples;Min_cycle;Max_cycle;Signal;HPM_P1;HPM_P2
2022/10/18 08:15:34;;;;;;;6.25;2.25;;;23.00;99.90;;;;;;6355935;22;20192;-69
2022/10/18 08:18:00;;;;;;;4.95;2.28;;;23.20;99.90;;;;;;6369178;22;20176;-70
2022/10/18 08:20:27;;;;;;;3.67;1.88;;;23.40;99.90;;;;;;6371415;22;20192;-68
2022/10/18 08:22:54;;;;;;;3.97;1.70;;;23.60;99.90;;;;;;6371661;22;20179;-69
2022/10/18 08:25:21;;;;;;;4.10;1.88;;;23.60;99.90;;;;;;6369286;22;20204;-69
2022/10/18 08:27:48;;;;;;;3.70;1.90;;;23.80;99.90;;;;;;6370827;22;20173;-70
2022/10/18 08:30:14;;;;;;;4.05;1.58;;;23.50;99.90;;;;;;6370424;22;20172;-69
2022/10/18 08:32:43;;;;;;;3.90;1.65;;;23.50;99.90;;;;;;6370695;22;20172;-69
2022/10/18 08:35:09;;;;;;;4.40;1.83;;;23.60;99.90;;;;;;6369591;22;20177;-69
2022/10/18 08:37:36;;;;;;;5.40;1.55;;;23.50;99.90;;;;;;6370430;22;20173;-67
2022/10/18 08:40:03;;;;;;;4.05;1.80;;;23.30;99.90;;;;;;6370241;22;20255;-68
2022/10/18 08:42:51;;;;;;;6.68;1.33;;;23.10;99.90;;;;;;6371572;22;20178;-68
2022/10/18 08:45:18;;;;;;;4.03;1.10;;;22.50;99.90;;;;;;6371259;22;20200;-68
2022/10/18 08:47:50;;;;;;;6.70;1.88;;;22.00;99.90;;;;;;6370835;22;20172;-69
2022/10/18 08:50:20;;;;;;;4.93;1.50;;;21.60;99.90;;;;;;6371375;22;20219;-68
2022/10/18 08:52:53;;;;;;;5.72;1.25;;;21.30;99.90;;;;;;6370521;22;20781;-68
2022/10/18 08:55:24;;;;;;;7.30;1.60;;;20.80;99.90;;;;;;6371004;22;20543;-68
2022/10/18 08:57:51;;;;;;;8.48;1.90;;;20.50;99.90;;;;;;6371370;22;20173;-68
2022/10/18 09:00:20;;;;;;;5.57;1.55;;;20.20;99.90;;;;;;6371228;22;20193;-68
2022/10/18 09:03:03;;;;;;;4.80;1.70;;;19.80;99.90;;;;;;6371437;22;20173;-68
2022/10/18 09:05:42;;;;;;;3.50;1.67;;;19.80;99.90;;;;;;6370669;22;20203;-67
2022/10/18 09:08:49;;;;;;;4.32;1.50;;;19.90;99.90;;;;;;6371077;22;20172;-67
2022/10/18 09:11:29;;;;;;;2.95;1.50;;;19.80;99.90;;;;;;6308917;22;20192;-68
2022/10/18 09:14:35;;;;;;;4.13;1.30;;;19.70;99.90;;;;;;6371246;22;20184;-68
2022/10/18 09:17:11;;;;;;;7.05;1.50;;;19.70;99.90;;;;;;6370509;22;20182;-68
2022/10/18 09:19:59;;;;;;;6.00;1.80;;;19.30;99.90;;;;;;6370668;22;20176;-69
2022/10/18 09:22:38;;;;;;;3.45;1.00;;;18.90;99.90;;;;;;6370634;22;20172;-68
2022/10/18 09:25:11;;;;;;;7.53;1.27;;;18.50;99.90;;;;;;6370958;22;20204;-68
2022/10/18 09:27:46;;;;;;;5.60;1.30;;;18.30;99.90;;;;;;6370260;22;20173;-72
2022/10/18 09:30:34;;;;;;;5.30;2.03;;;18.30;99.90;;;;;;6370546;22;20172;-68
2022/10/18 09:33:16;;;;;;;2.92;1.30;;;18.30;99.90;;;;;;6365576;22;20172;-68
2022/10/18 09:35:50;;;;;;;2.72;1.25;;;18.30;99.90;;;;;;6371172;22;20255;-71
2022/10/18 09:38:22;;;;;;;6.63;1.60;;;18.60;99.90;;;;;;6371023;22;20194;-69
2022/10/18 09:40:54;;;;;;;4.63;1.30;;;18.80;99.90;;;;;;6370229;22;20203;-69
2022/10/18 09:43:25;;;;;;;3.53;1.00;;;18.70;99.90;;;;;;6370329;22;20251;-69
2022/10/18 09:45:54;;;;;;;5.32;1.40;;;18.70;99.90;;;;;;6370539;22;20236;-68
2022/10/18 09:48:26;;;;;;;3.03;1.20;;;18.80;99.90;;;;;;6370942;22;20203;-67
2022/10/18 09:50:58;;;;;;;5.20;1.25;;;19.00;99.90;;;;;;6370724;22;20192;-68
2022/10/18 09:53:34;;;;;;;6.20;1.10;;;18.80;99.90;;;;;;6370453;22;20177;-70
2022/10/18 09:56:03;;;;;;;6.85;1.40;;;18.70;99.90;;;;;;6370301;22;20176;-68
2022/10/18 09:58:41;;;;;;;4.75;1.33;;;18.90;99.90;;;;;;6370702;22;20173;-69
2022/10/18 10:01:10;;;;;;;3.70;0.98;;;19.10;99.90;;;;;;6370625;22;20252;-69
2022/10/18 10:03:36;;;;;;;7.57;1.70;;;19.00;99.90;;;;;;6370433;22;20489;-68
2022/10/18 10:06:17;;;;;;;4.85;1.00;;;19.00;99.90;;;;;;6371145;22;20201;-69
2022/10/18 10:08:47;;;;;;;3.80;1.10;;;18.80;99.90;;;;;;6370717;22;20176;-68
2022/10/18 10:11:27;;;;;;;4.97;0.77;;;18.60;99.90;;;;;;6369722;22;20207;-69
2022/10/18 10:13:57;;;;;;;7.35;1.10;;;18.80;99.90;;;;;;6370837;22;20173;-71
2022/10/18 10:16:26;;;;;;;5.93;1.00;;;18.90;99.90;;;;;;6369804;22;20188;-69
2022/10/18 10:18:54;;;;;;;2.67;1.10;;;18.80;99.90;;;;;;6370293;22;20195;-68
2022/10/18 10:21:23;;;;;;;6.13;1.23;;;18.80;99.90;;;;;;6370365;22;20279;-67
2022/10/18 10:23:54;;;;;;;6.22;1.60;;;18.80;99.90;;;;;;6370533;22;20187;-68
2022/10/18 10:26:24;;;;;;;2.28;0.90;;;19.10;99.90;;;;;;6370575;22;20204;-67
2022/10/18 10:28:51;;;;;;;7.28;1.27;;;19.20;99.90;;;;;;6370153;22;20172;-69
2022/10/18 10:31:26;;;;;;;7.88;1.77;;;19.30;99.90;;;;;;6370171;22;20279;-68
2022/10/18 10:34:00;;;;;;;4.85;1.00;;;19.20;99.90;;;;;;6370000;22;20284;-69
2022/10/18 10:36:30;;;;;;;6.13;1.10;;;19.00;99.90;;;;;;6370218;22;20183;-68
2022/10/18 10:39:05;;;;;;;5.38;1.10;;;18.50;99.90;;;;;;6369595;22;20173;-69
2022/10/18 10:41:33;;;;;;;14.93;1.58;;;18.50;99.90;;;;;;6369860;22;20714;-70
2022/10/18 10:44:04;;;;;;;6.53;1.20;;;18.50;99.90;;;;;;6370114;22;20629;-70
2022/10/18 10:46:35;;;;;;;4.00;1.30;;;18.50;99.90;;;;;;6370498;22;20249;-68
2022/10/18 10:49:03;;;;;;;2.55;1.23;;;18.60;99.90;;;;;;6370618;22;20183;-69
2022/10/18 10:51:33;;;;;;;5.70;1.15;;;18.80;99.90;;;;;;6370692;22;20193;-70
2022/10/18 10:54:07;;;;;;;2.97;0.65;;;18.90;99.90;;;;;;6370332;22;20567;-69
2022/10/18 10:56:36;;;;;;;4.00;0.90;;;19.10;99.90;;;;;;6370225;22;20178;-69
2022/10/18 10:59:12;;;;;;;4.03;0.80;;;19.10;99.90;;;;;;6369859;22;20183;-69
2022/10/18 11:01:40;;;;;;;5.10;1.20;;;19.10;99.90;;;;;;6370317;22;20192;-70
2022/10/18 11:04:24;;;;;;;4.63;1.10;;;19.00;99.90;;;;;;6369957;22;20554;-68
2022/10/18 11:07:13;;;;;;;3.80;1.27;;;19.10;99.90;;;;;;6370337;22;20278;-72
2022/10/18 11:09:47;;;;;;;2.33;0.90;;;19.30;99.90;;;;;;6370498;22;20172;-73
2022/10/18 11:12:26;;;;;;;4.50;0.80;;;19.50;99.90;;;;;;6370030;22;20192;-69
2022/10/18 11:15:02;;;;;;;5.30;0.98;;;19.50;99.90;;;;;;6369687;22;20195;-70
2022/10/18 11:17:35;;;;;;;4.80;1.50;;;19.30;99.90;;;;;;6370408;22;20199;-69
2022/10/18 11:20:17;;;;;;;5.35;1.17;;;19.30;99.90;;;;;;6370012;22;20204;-69
2022/10/18 11:22:57;;;;;;;4.35;1.10;;;19.50;99.90;;;;;;6370051;22;20538;-69
2022/10/18 11:25:28;;;;;;;2.97;1.23;;;19.70;99.90;;;;;;6370221;22;20211;-69
2022/10/18 11:28:00;;;;;;;4.68;1.08;;;19.90;99.90;;;;;;6370403;22;20181;-69
2022/10/18 11:30:41;;;;;;;5.88;0.98;;;20.00;99.90;;;;;;6369801;22;20192;-70
2022/10/18 11:33:21;;;;;;;3.72;1.00;;;19.90;99.90;;;;;;6369713;22;20701;-69
2022/10/18 11:35:51;;;;;;;7.93;1.00;;;19.90;99.90;;;;;;6370392;22;20172;-69
2022/10/18 11:38:30;;;;;;;4.53;0.90;;;20.00;99.90;;;;;;6369874;22;20177;-70
2022/10/18 11:41:21;;;;;;;5.38;1.25;;;19.80;99.90;;;;;;6369773;22;20202;-71
2022/10/18 11:43:53;;;;;;;2.85;0.70;;;19.70;99.90;;;;;;6370415;22;20482;-71
2022/10/18 11:46:30;;;;;;;3.38;0.90;;;19.60;99.90;;;;;;6369988;22;20226;-71
2022/10/18 11:49:10;;;;;;;4.70;1.13;;;19.70;99.90;;;;;;6370372;22;20171;-73
2022/10/18 11:51:48;;;;;;;5.85;1.23;;;19.50;99.90;;;;;;6369795;22;20196;-70
2022/10/18 11:54:41;;;;;;;1.75;0.60;;;19.30;99.90;;;;;;6370318;22;20179;-71
2022/10/18 11:57:21;;;;;;;3.25;0.85;;;19.10;99.90;;;;;;6370328;22;20184;-71
2022/10/18 11:59:58;;;;;;;2.90;0.80;;;19.00;99.90;;;;;;6370213;22;20172;-70
2022/10/18 12:02:44;;;;;;;1.30;0.88;;;19.00;99.90;;;;;;6370163;22;20172;-71
2022/10/18 12:05:12;;;;;;;2.20;0.60;;;19.00;99.90;;;;;;6370254;22;20494;-72
2022/10/18 12:07:49;;;;;;;1.40;0.65;;;19.10;99.90;;;;;;6369917;22;20172;-70
2022/10/18 12:10:20;;;;;;;4.13;0.93;;;19.20;99.90;;;;;;6369652;22;20628;-72
2022/10/18 12:12:53;;;;;;;2.92;0.60;;;19.20;99.90;;;;;;6369423;22;20183;-72
2022/10/18 12:15:22;;;;;;;3.10;0.80;;;19.40;99.90;;;;;;6369689;22;20271;-71
2022/10/18 12:17:53;;;;;;;2.58;0.60;;;19.50;99.90;;;;;;6370039;22;20208;-71
2022/10/18 12:20:27;;;;;;;2.47;0.57;;;19.70;99.90;;;;;;6370012;22;20193;-71
2022/10/18 12:23:00;;;;;;;4.82;0.70;;;19.80;99.90;;;;;;6370136;22;20172;-71
2022/10/18 12:25:30;;;;;;;2.30;0.60;;;19.90;99.90;;;;;;6370046;22;20197;-73
2022/10/18 12:28:02;;;;;;;2.28;0.60;;;20.00;99.90;;;;;;6370053;22;20172;-70
2022/10/18 12:30:37;;;;;;;1.67;0.60;;;20.20;99.90;;;;;;6369519;22;20193;-72
2022/10/18 12:33:09;;;;;;;2.08;0.63;;;20.10;99.90;;;;;;6369373;22;20646;-73
2022/10/18 12:35:47;;;;;;;3.83;0.57;;;20.20;99.90;;;;;;6370182;22;20176;-71
2022/10/18 12:38:21;;;;;;;3.58;0.65;;;20.10;99.90;;;;;;6369594;22;20180;-70
2022/10/18 12:40:53;;;;;;;2.42;0.70;;;20.00;99.90;;;;;;6371405;22;20586;-72
2022/10/18 12:43:24;;;;;;;3.28;0.63;;;19.90;99.90;;;;;;6372125;22;20497;-70
2022/10/18 12:45:54;;;;;;;2.17;0.65;;;19.90;99.90;;;;;;6371754;22;20283;-70
2022/10/18 12:48:29;;;;;;;3.67;1.00;;;19.90;99.90;;;;;;6371779;22;20182;-72
2022/10/18 12:50:59;;;;;;;2.40;0.60;;;20.00;99.90;;;;;;6371732;22;20269;-69
2022/10/18 12:53:27;;;;;;;2.75;0.60;;;20.00;99.90;;;;;;6366418;22;20255;-67
2022/10/18 12:56:26;;;;;;;3.28;0.57;;;20.00;99.90;;;;;;6371418;22;20511;-70
2022/10/18 12:59:13;;;;;;;4.20;0.50;;;20.10;99.90;;;;;;6369357;22;20172;-69
2022/10/18 13:02:18;;;;;;;2.90;0.50;;;20.00;99.90;;;;;;6370277;22;20192;-70
2022/10/18 13:04:45;;;;;;;4.38;0.60;;;20.10;99.90;;;;;;6370471;22;20186;-68
2022/10/18 13:07:19;;;;;;;2.05;0.50;;;20.10;99.90;;;;;;6370597;22;20200;-71
2022/10/18 13:10:19;;;;;;;3.70;0.80;;;20.20;99.90;;;;;;6371034;22;20178;-71
2022/10/18 13:12:58;;;;;;;3.92;0.70;;;20.20;99.90;;;;;;6370298;22;20670;-74
2022/10/18 13:15:41;;;;;;;3.47;0.60;;;20.10;99.90;;;;;;6370512;22;20296;-74
2022/10/18 13:18:24;;;;;;;3.40;0.75;;;20.10;99.90;;;;;;6370641;22;20178;-75
2022/10/18 13:21:12;;;;;;;1.95;0.55;;;20.30;99.90;;;;;;6370554;22;20199;-73
2022/10/18 13:23:55;;;;;;;3.60;0.70;;;20.20;99.90;;;;;;6369749;22;20655;-70
2022/10/18 13:26:31;;;;;;;1.83;0.60;;;20.20;99.90;;;;;;6371014;22;20200;-70
2022/10/18 13:29:05;;;;;;;1.38;0.60;;;20.20;99.90;;;;;;6370550;22;20504;-72
2022/10/18 13:31:39;;;;;;;5.05;0.88;;;20.30;99.90;;;;;;6370754;22;20198;-69
2022/10/18 13:34:28;;;;;;;5.20;0.70;;;20.20;99.90;;;;;;6370432;22;20257;-69
2022/10/18 13:37:00;;;;;;;2.22;0.52;;;20.00;99.90;;;;;;6370315;22;20199;-73
2022/10/18 13:39:29;;;;;;;2.58;0.52;;;20.20;99.90;;;;;;6370619;22;20179;-72
2022/10/18 13:42:28;;;;;;;3.25;0.50;;;20.30;99.90;;;;;;6369694;22;20580;-73
2022/10/18 13:45:15;;;;;;;3.20;0.55;;;20.10;99.90;;;;;;6356048;22;20180;-73
2022/10/18 13:47:43;;;;;;;4.90;0.98;;;19.80;99.90;;;;;;6368209;22;20206;-70
2022/10/18 13:50:19;;;;;;;1.25;0.52;;;20.00;99.90;;;;;;6368624;22;20624;-74
2022/10/18 13:53:19;;;;;;;8.38;0.77;;;20.20;99.90;;;;;;6367487;22;20182;-71
2022/10/18 13:55:57;;;;;;;3.95;0.50;;;20.00;99.90;;;;;;6367911;22;20187;-72
2022/10/18 13:58:36;;;;;;;2.95;0.90;;;19.80;99.90;;;;;;6368966;22;20255;-71
2022/10/18 14:01:17;;;;;;;3.97;0.90;;;19.70;99.90;;;;;;6367320;22;20196;-71
2022/10/18 14:04:26;;;;;;;1.95;0.57;;;19.60;99.90;;;;;;6367788;22;20262;-71
2022/10/18 14:06:58;;;;;;;3.53;0.65;;;19.90;99.90;;;;;;6368233;22;20204;-72
2022/10/18 14:09:29;;;;;;;3.47;0.75;;;19.90;99.90;;;;;;6368312;22;20624;-71
2022/10/18 14:12:02;;;;;;;5.57;0.70;;;19.90;99.90;;;;;;6369302;22;20206;-74
2022/10/18 14:14:35;;;;;;;5.18;0.68;;;19.70;99.90;;;;;;6367366;22;20636;-69
2022/10/18 14:17:08;;;;;;;2.45;0.73;;;19.80;99.90;;;;;;6368429;22;20176;-70
2022/10/18 14:19:40;;;;;;;4.57;0.68;;;19.70;99.90;;;;;;6369395;22;20176;-73
2022/10/18 14:22:13;;;;;;;1.63;0.55;;;19.90;99.90;;;;;;6368374;22;20192;-71
2022/10/18 14:24:45;;;;;;;2.53;0.50;;;19.80;99.90;;;;;;6368774;22;20259;-72
2022/10/18 14:27:16;;;;;;;1.92;0.50;;;19.90;99.90;;;;;;6369109;22;20528;-72
2022/10/18 14:29:43;;;;;;;3.97;0.70;;;20.10;99.90;;;;;;6367395;22;20637;-72
2022/10/18 14:32:25;;;;;;;4.40;0.75;;;20.10;99.90;;;;;;6368594;22;20200;-73
2022/10/18 14:34:53;;;;;;;4.30;0.70;;;20.00;99.90;;;;;;6368221;22;20180;-74
2022/10/18 14:37:27;;;;;;;3.55;0.90;;;19.90;99.90;;;;;;6368574;22;20179;-70
2022/10/18 14:39:54;;;;;;;3.85;0.60;;;20.00;99.90;;;;;;6368929;22;20259;-71
2022/10/18 14:42:23;;;;;;;2.67;0.60;;;20.20;99.90;;;;;;6368200;22;20664;-71
2022/10/18 14:44:50;;;;;;;2.47;0.52;;;20.30;99.90;;;;;;6367942;22;20173;-72
2022/10/18 14:47:21;;;;;;;4.75;0.73;;;20.30;99.90;;;;;;6368817;22;20204;-70
2022/10/18 14:49:48;;;;;;;3.28;0.60;;;20.00;99.90;;;;;;6368835;22;20184;-74
2022/10/18 14:52:19;;;;;;;2.42;0.98;;;20.00;99.90;;;;;;6368013;22;20192;-74
2022/10/18 14:54:46;;;;;;;2.90;0.80;;;19.90;99.90;;;;;;6368360;22;20199;-73
2022/10/18 14:57:18;;;;;;;5.20;0.60;;;20.00;99.90;;;;;;6368315;22;20176;-70
2022/10/18 14:59:50;;;;;;;2.22;0.50;;;20.10;99.90;;;;;;6368338;22;20173;-72
2022/10/18 15:02:22;;;;;;;2.58;0.77;;;19.90;99.90;;;;;;6368641;22;20192;-71
2022/10/18 15:04:56;;;;;;;1.77;0.50;;;20.00;99.90;;;;;;6368196;22;20187;-71
2022/10/18 15:07:27;;;;;;;2.65;1.40;;;19.90;99.90;;;;;;6368035;22;20200;-70
2022/10/18 15:09:57;;;;;;;2.28;0.75;;;19.60;99.90;;;;;;6368158;22;20176;-70
2022/10/18 15:12:24;;;;;;;5.07;1.02;;;19.60;99.90;;;;;;6368273;22;20647;-70
2022/10/18 15:14:52;;;;;;;2.40;0.60;;;19.70;99.90;;;;;;6367551;22;20180;-69
2022/10/18 15:17:23;;;;;;;3.55;0.52;;;19.50;99.90;;;;;;6368724;22;20203;-76
2022/10/18 15:19:58;;;;;;;1.50;0.52;;;19.60;99.90;;;;;;6368060;22;20176;-70
2022/10/18 15:22:28;;;;;;;4.43;0.77;;;19.50;99.90;;;;;;6367348;22;20182;-73
2022/10/18 15:25:13;;;;;;;2.53;0.70;;;19.50;99.90;;;;;;6368134;22;20236;-70
2022/10/18 15:27:43;;;;;;;1.92;0.50;;;19.50;99.90;;;;;;6368050;22;20541;-70
2022/10/18 15:30:17;;;;;;;3.05;0.60;;;19.50;99.90;;;;;;6367908;22;20180;-71
2022/10/18 15:32:49;;;;;;;1.45;0.50;;;19.60;99.90;;;;;;6369183;22;20256;-72
2022/10/18 15:35:19;;;;;;;3.88;0.70;;;19.80;99.90;;;;;;6367532;22;20191;-72
2022/10/18 15:37:48;;;;;;;4.28;0.70;;;19.40;99.90;;;;;;6367895;22;20172;-70
2022/10/18 15:40:37;;;;;;;3.88;0.73;;;19.10;99.90;;;;;;6367883;22;20172;-70
2022/10/18 15:43:25;;;;;;;2.55;0.63;;;18.90;99.90;;;;;;6367994;22;20172;-72
2022/10/18 15:45:54;;;;;;;3.25;0.93;;;18.90;99.90;;;;;;6367711;22;20176;-73
2022/10/18 15:48:24;;;;;;;4.10;0.90;;;19.00;99.90;;;;;;6368345;22;20212;-72
2022/10/18 15:50:53;;;;;;;2.78;0.60;;;19.00;99.90;;;;;;6368103;22;20315;-73
2022/10/18 15:53:34;;;;;;;5.80;0.70;;;19.10;99.90;;;;;;6368235;22;20183;-73
2022/10/18 15:56:06;;;;;;;2.20;0.50;;;19.20;99.90;;;;;;6368349;22;20179;-72
2022/10/18 15:58:43;;;;;;;3.97;0.68;;;19.20;99.90;;;;;;6367389;22;20180;-73
2022/10/18 16:01:16;;;;;;;3.58;0.65;;;19.10;99.90;;;;;;6368232;22;20196;-71
2022/10/18 16:03:45;;;;;;;2.80;0.68;;;19.00;99.90;;;;;;6367882;22;20172;-72
2022/10/18 16:06:13;;;;;;;3.92;0.80;;;18.90;99.90;;;;;;6367486;22;20211;-73
2022/10/18 16:08:43;;;;;;;1.55;0.60;;;18.90;99.90;;;;;;6368538;22;20214;-73
2022/10/18 16:11:15;;;;;;;2.97;0.60;;;18.90;99.90;;;;;;6368452;22;20192;-73
2022/10/18 16:13:43;;;;;;;1.95;0.50;;;18.80;99.90;;;;;;6367493;22;20640;-74
2022/10/18 16:16:14;;;;;;;2.03;0.80;;;18.60;99.90;;;;;;6370204;22;20233;-73
2022/10/18 16:18:41;;;;;;;3.80;0.95;;;18.60;99.90;;;;;;6371756;22;20176;-72
2022/10/18 16:21:16;;;;;;;5.47;0.70;;;18.50;99.90;;;;;;6369782;22;20192;-72
2022/10/18 16:23:44;;;;;;;4.90;0.85;;;18.30;99.90;;;;;;6370567;22;20207;-71
2022/10/18 16:26:12;;;;;;;4.50;0.80;;;18.30;99.90;;;;;;6370876;22;20177;-72
2022/10/18 16:28:39;;;;;;;2.22;0.70;;;18.40;99.90;;;;;;6369753;22;20215;-72
2022/10/18 16:31:06;;;;;;;4.22;0.75;;;18.40;99.90;;;;;;6369496;22;20497;-72
2022/10/18 16:33:35;;;;;;;2.50;0.80;;;18.30;99.90;;;;;;6370181;22;20209;-72
2022/10/18 16:36:03;;;;;;;2.05;1.05;;;18.20;99.90;;;;;;6369306;22;20225;-72
2022/10/18 16:38:32;;;;;;;2.42;0.80;;;18.10;99.90;;;;;;6370035;22;20259;-71
2022/10/18 16:41:01;;;;;;;6.25;1.55;;;17.90;99.90;;;;;;6369876;22;20198;-71
2022/10/18 16:43:28;;;;;;;2.33;0.85;;;17.70;99.90;;;;;;6369146;22;20182;-71
2022/10/18 16:45:55;;;;;;;3.22;1.02;;;17.50;99.90;;;;;;6369569;22;20173;-72
2022/10/18 16:48:25;;;;;;;3.73;0.90;;;17.40;99.90;;;;;;6369895;22;20210;-72
2022/10/18 16:50:52;;;;;;;5.20;0.80;;;17.30;99.90;;;;;;6369347;22;20513;-72
2022/10/18 16:53:22;;;;;;;2.07;0.90;;;17.20;99.90;;;;;;6370056;22;20172;-71
2022/10/18 16:55:53;;;;;;;5.18;1.10;;;17.10;99.90;;;;;;6369957;22;20176;-71
2022/10/18 16:58:22;;;;;;;6.80;1.10;;;17.00;99.90;;;;;;6341212;22;20176;-72
2022/10/18 17:00:49;;;;;;;1.40;0.90;;;16.80;99.90;;;;;;6369429;22;20664;-71
2022/10/18 17:03:16;;;;;;;2.07;0.83;;;16.80;99.90;;;;;;6370090;22;20176;-71
2022/10/18 17:05:44;;;;;;;1.90;0.70;;;16.70;99.90;;;;;;6369442;22;20230;-71
2022/10/18 17:08:18;;;;;;;9.27;0.93;;;16.70;99.90;;;;;;6370546;22;20672;-71
2022/10/18 17:10:45;;;;;;;2.50;0.90;;;16.70;99.90;;;;;;6371930;22;20200;-71
2022/10/18 17:13:12;;;;;;;5.13;1.37;;;16.90;99.90;;;;;;6371168;22;20255;-73
2022/10/18 17:15:41;;;;;;;4.53;1.13;;;16.80;99.90;;;;;;6371092;22;20181;-73
2022/10/18 17:18:12;;;;;;;3.27;1.00;;;16.70;99.90;;;;;;6371472;22;20222;-73
2022/10/18 17:20:40;;;;;;;1.67;0.70;;;16.70;99.90;;;;;;6371407;22;20226;-73
2022/10/18 17:23:07;;;;;;;3.23;0.80;;;16.60;99.90;;;;;;6371556;22;20172;-73
2022/10/18 17:25:34;;;;;;;3.63;1.10;;;16.40;99.90;;;;;;6371342;22;20187;-73
2022/10/18 17:28:01;;;;;;;2.03;0.70;;;16.30;99.90;;;;;;6371417;22;20226;-72
2022/10/18 17:30:28;;;;;;;3.13;1.07;;;16.20;99.90;;;;;;6371055;22;20192;-72
2022/10/18 17:32:56;;;;;;;4.10;0.80;;;16.10;99.90;;;;;;6371359;22;20172;-72
2022/10/18 17:35:23;;;;;;;6.07;1.10;;;16.00;99.90;;;;;;6371465;22;20254;-72
2022/10/18 17:37:52;;;;;;;4.63;0.80;;;15.80;99.90;;;;;;6371211;22;20504;-72
2022/10/18 17:40:19;;;;;;;26.80;12.90;;;15.80;99.90;;;;;;6370984;22;20275;-72
2022/10/18 17:42:46;;;;;;;14.53;6.17;;;15.60;99.90;;;;;;6370923;22;20252;-73
2022/10/18 17:45:13;;;;;;;6.13;2.70;;;15.50;99.90;;;;;;6370991;22;20256;-72
2022/10/18 17:47:40;;;;;;;5.77;2.10;;;15.40;99.90;;;;;;6371475;22;20196;-74
2022/10/18 17:50:08;;;;;;;1.83;1.03;;;15.40;99.90;;;;;;6370380;22;20173;-72
2022/10/18 17:52:35;;;;;;;3.73;1.37;;;15.30;99.90;;;;;;6371277;22;20247;-71
2022/10/18 17:55:02;;;;;;;2.77;1.30;;;15.20;99.90;;;;;;6370929;22;20172;-71
2022/10/18 17:57:29;;;;;;;3.27;0.90;;;15.10;99.90;;;;;;6370682;22;20259;-71
2022/10/18 17:59:57;;;;;;;5.07;1.33;;;15.10;99.90;;;;;;6370409;22;20176;-71
2022/10/18 18:02:24;;;;;;;4.63;1.43;;;15.00;99.90;;;;;;6371198;22;20233;-71
2022/10/18 18:04:53;;;;;;;4.37;1.33;;;15.00;99.90;;;;;;6371046;22;20181;-71
2022/10/18 18:07:21;;;;;;;3.30;1.20;;;14.90;99.90;;;;;;6370974;22;20196;-71
2022/10/18 18:09:48;;;;;;;4.37;1.10;;;14.90;99.90;;;;;;6370727;22;20200;-71
2022/10/18 18:12:15;;;;;;;6.97;1.80;;;15.00;99.90;;;;;;6370971;22;20193;-71
2022/10/18 18:14:42;;;;;;;2.87;1.13;;;15.00;99.90;;;;;;6370397;22;20190;-71
2022/10/18 18:17:08;;;;;;;4.60;1.40;;;15.00;99.90;;;;;;6370977;22;20259;-71
2022/10/18 18:19:35;;;;;;;2.73;1.00;;;14.90;99.90;;;;;;6369823;22;20176;-71
2022/10/18 18:22:03;;;;;;;4.43;1.53;;;14.90;99.90;;;;;;6369680;22;20192;-71
2022/10/18 18:24:31;;;;;;;1.70;0.90;;;14.90;99.90;;;;;;6368783;22;20535;-71
2022/10/18 18:26:58;;;;;;;5.87;1.40;;;14.80;99.90;;;;;;6369415;22;20633;-70
2022/10/18 18:29:28;;;;;;;3.87;1.47;;;14.70;99.90;;;;;;6370233;22;20208;-71
2022/10/18 18:31:54;;;;;;;1.80;1.03;;;14.80;99.90;;;;;;6370019;22;20275;-71
2022/10/18 18:34:21;;;;;;;3.77;1.20;;;14.70;99.90;;;;;;6370531;22;20172;-70
2022/10/18 18:36:50;;;;;;;2.70;1.10;;;14.70;99.90;;;;;;6370119;22;20730;-71
2022/10/18 18:39:22;;;;;;;2.13;0.83;;;14.70;99.90;;;;;;6370399;22;20259;-71
2022/10/18 18:41:51;;;;;;;9.13;1.40;;;14.60;99.90;;;;;;6370188;22;20521;-71
2022/10/18 18:44:20;;;;;;;5.00;1.40;;;14.50;99.90;;;;;;6371013;22;20260;-71
2022/10/18 18:46:47;;;;;;;6.63;1.60;;;14.50;99.90;;;;;;6370598;22;20179;-71
2022/10/18 18:49:14;;;;;;;3.77;1.30;;;14.50;99.90;;;;;;6369898;22;20204;-70
2022/10/18 18:51:41;;;;;;;3.13;1.53;;;14.50;99.90;;;;;;6370805;22;20193;-70
2022/10/18 18:54:10;;;;;;;1.97;1.40;;;14.50;99.90;;;;;;6370421;22;20172;-70
2022/10/18 18:56:37;;;;;;;6.73;1.60;;;14.50;99.90;;;;;;6370639;22;20179;-71
2022/10/18 18:59:05;;;;;;;5.20;2.27;;;14.40;99.90;;;;;;6370483;22;20229;-71
2022/10/18 19:01:34;;;;;;;6.90;2.20;;;14.40;99.90;;;;;;6370068;22;20246;-71
2022/10/18 19:04:02;;;;;;;2.83;1.53;;;14.40;99.90;;;;;;6370660;22;20179;-71
2022/10/18 19:06:30;;;;;;;3.23;1.40;;;14.40;99.90;;;;;;6370098;22;20632;-71
2022/10/18 19:09:00;;;;;;;4.60;1.10;;;14.30;99.90;;;;;;6369969;22;20200;-70
2022/10/18 19:11:29;;;;;;;4.50;1.30;;;14.30;99.90;;;;;;6370389;22;20279;-71
2022/10/18 19:13:56;;;;;;;3.73;1.10;;;14.20;99.90;;;;;;6370281;22;20180;-72
2022/10/18 19:16:26;;;;;;;3.93;1.00;;;14.20;99.90;;;;;;6369771;22;20505;-72
2022/10/18 19:18:56;;;;;;;4.03;1.10;;;14.10;99.90;;;;;;6369735;22;20172;-72
2022/10/18 19:21:25;;;;;;;7.63;1.70;;;14.00;99.90;;;;;;6370429;22;20192;-73
2022/10/18 19:23:52;;;;;;;5.57;1.37;;;14.00;99.90;;;;;;6370039;22;20176;-71
2022/10/18 19:26:28;;;;;;;5.87;1.27;;;14.00;99.90;;;;;;6369969;22;20180;-71
2022/10/18 19:28:55;;;;;;;4.87;1.30;;;14.10;99.90;;;;;;6369965;22;20207;-71
2022/10/18 19:31:24;;;;;;;5.90;1.33;;;14.00;99.90;;;;;;6369900;22;20279;-72
2022/10/18 19:33:51;;;;;;;3.40;1.33;;;14.00;99.90;;;;;;6370274;22;20255;-72
2022/10/18 19:36:17;;;;;;;4.47;1.60;;;13.90;99.90;;;;;;6369588;22;20692;-72
2022/10/18 19:38:44;;;;;;;4.47;1.50;;;13.90;99.90;;;;;;6370190;22;20215;-72
2022/10/18 19:41:11;;;;;;;7.57;1.33;;;13.90;99.90;;;;;;6370041;22;20193;-71
2022/10/18 19:43:38;;;;;;;4.70;1.20;;;13.80;99.90;;;;;;6369434;22;20219;-71
2022/10/18 19:46:05;;;;;;;2.37;1.13;;;13.80;99.90;;;;;;6369614;22;20176;-71
2022/10/18 19:48:33;;;;;;;2.47;1.13;;;13.70;99.90;;;;;;6370167;22;20279;-72
2022/10/18 19:51:04;;;;;;;3.90;1.43;;;13.60;99.90;;;;;;6371389;22;20218;-71
2022/10/18 19:53:32;;;;;;;4.00;1.40;;;13.60;99.90;;;;;;6372210;22;20176;-72
2022/10/18 19:55:59;;;;;;;5.00;1.17;;;13.60;99.90;;;;;;6372534;22;20176;-71
2022/10/18 19:58:27;;;;;;;3.47;1.33;;;13.50;99.90;;;;;;6372211;22;20177;-72
2022/10/18 20:00:54;;;;;;;4.47;1.40;;;13.50;99.90;;;;;;6371651;22;20672;-71
2022/10/18 20:03:21;;;;;;;4.13;1.20;;;13.40;99.90;;;;;;6371803;22;20179;-72
2022/10/18 20:05:55;;;;;;;6.47;1.70;;;13.30;99.90;;;;;;6371535;22;20172;-72
2022/10/18 20:08:22;;;;;;;5.00;1.37;;;13.30;99.90;;;;;;6371709;22;20732;-71
2022/10/18 20:10:49;;;;;;;5.03;1.40;;;13.30;99.90;;;;;;6371842;22;20278;-72
2022/10/18 20:15:47;;;;;;;5.33;1.30;;;13.30;99.90;;;;;;6340086;22;20184;-65
2022/10/18 20:18:14;;;;;;;3.33;1.57;;;13.20;99.90;;;;;;6340095;22;20187;-64
2022/10/18 20:20:42;;;;;;;7.00;1.37;;;13.20;99.90;;;;;;6349495;22;20253;-69
2022/10/18 20:23:10;;;;;;;8.80;1.70;;;13.10;99.90;;;;;;6371062;22;20656;-65
2022/10/18 20:25:37;;;;;;;4.90;1.50;;;13.10;99.90;;;;;;6371680;22;20179;-66
2022/10/18 20:28:05;;;;;;;5.30;1.50;;;13.10;99.90;;;;;;6371839;22;20508;-72
2022/10/18 20:30:32;;;;;;;2.77;1.47;;;13.00;99.90;;;;;;6371256;22;20672;-65
2022/10/18 20:32:59;;;;;;;2.80;1.43;;;13.00;99.90;;;;;;6371655;22;20178;-65
2022/10/18 20:35:26;;;;;;;6.73;1.43;;;13.00;99.90;;;;;;6371316;22;20172;-66
2022/10/18 20:37:52;;;;;;;6.73;2.23;;;13.00;99.90;;;;;;6370955;22;20543;-67
2022/10/18 20:40:20;;;;;;;3.13;1.50;;;12.90;99.90;;;;;;6371467;22;20196;-67
2022/10/18 20:42:47;;;;;;;4.20;1.33;;;12.90;99.90;;;;;;6371391;22;20177;-65
2022/10/18 20:45:14;;;;;;;6.60;1.50;;;12.90;99.90;;;;;;6371752;22;20180;-66
2022/10/18 20:47:41;;;;;;;7.20;1.43;;;12.90;99.90;;;;;;6371719;22;20259;-71
2022/10/18 20:50:09;;;;;;;5.17;1.20;;;12.90;99.90;;;;;;6371288;22;20235;-66
2022/10/18 20:52:36;;;;;;;4.83;1.23;;;12.80;99.90;;;;;;6370965;22;20255;-67
2022/10/18 20:55:03;;;;;;;3.67;1.53;;;12.80;99.90;;;;;;6371618;22;20178;-66
2022/10/18 20:57:31;;;;;;;5.20;1.60;;;12.70;99.90;;;;;;6371214;22;20680;-66
2022/10/18 20:59:58;;;;;;;3.40;1.47;;;12.70;99.90;;;;;;6371696;22;20263;-67
2022/10/18 21:02:25;;;;;;;1.93;1.20;;;12.70;99.90;;;;;;6370850;22;20172;-70
2022/10/18 21:04:52;;;;;;;3.83;1.60;;;12.70;99.90;;;;;;6370932;22;20173;-66
2022/10/18 21:07:19;;;;;;;3.83;1.77;;;12.70;99.90;;;;;;6371725;22;20172;-69
2022/10/18 21:09:45;;;;;;;8.20;1.37;;;12.70;99.90;;;;;;6371888;22;20204;-73
2022/10/18 21:12:12;;;;;;;4.60;1.50;;;12.70;99.90;;;;;;6371659;22;20200;-69
2022/10/18 21:14:41;;;;;;;2.73;1.60;;;12.70;99.90;;;;;;6370634;22;20186;-66
2022/10/18 21:17:07;;;;;;;6.00;1.93;;;12.70;99.90;;;;;;6371582;22;20172;-66
2022/10/18 21:19:34;;;;;;;7.03;1.83;;;12.70;99.90;;;;;;6370931;22;20172;-66
2022/10/18 21:22:01;;;;;;;6.70;1.90;;;12.60;99.90;;;;;;6370464;22;20675;-66
2022/10/18 21:24:28;;;;;;;4.67;1.50;;;12.60;99.90;;;;;;6371217;22;20187;-66
2022/10/18 21:26:55;;;;;;;3.60;1.73;;;12.60;99.90;;;;;;6371047;22;20179;-68